WMB weather

Warrnambool Airport
Victoria, Australia

Public forecast

Using degrees Celsius for public forecast. Weather courtesy of forecast.io.

METAR (pilot weather report)

Closest report is Mount Gambier Airport, 85.3 nm (157.9 km) WNW. Retrieved 2019/05/20 02:00 UTC (5 minutes ago):

YMTG 200200Z AUTO 32013KT 7000 // SCT013 SCT033 SCT039 14/12 Q1017

TAF (pilot weather forecast)

Forecast is more than 12 hours old.

Closest forecast is Avalon Airport, 96.7 nm (179.0 km) E. Retrieved 2019/05/19 00:33 UTC (1 day ago):

TAF YMAV 192316Z 2000/2024 36015G25KT 9999 -SHRA SCT035 BKN080 FM200400 33014KT 9999 SCT030 FM200900 33008KT 9999 SCT040